Time;durP1;ratioP1;P1;durP2;ratioP2;P2;SDS_P1;SDS_P2;PMS_P1;PMS_P2;Temp;Humidity;BMP_temperature;BMP_pressure;BME280_temperature;BME280_humidity;BME280_pressure;Samples;Min_cycle;Max_cycle;Signal;HPM_P1;HPM_P2
2023/06/03 00:00:02;;;;;;;;;;;;;;;;;;5054651;28;19916;-67
2023/06/03 00:02:29;;;;;;;;;;;;;;;;;;5065548;28;19912;-67
2023/06/03 00:04:55;;;;;;;;;;;;;;;;;;5074310;28;20410;-67
2023/06/03 00:07:20;;;;;;;;;;;;;;;;;;5070984;28;19943;-67
2023/06/03 00:09:46;;;;;;;;;;;;;;;;;;5072362;28;19999;-67
2023/06/03 00:12:12;;;;;;;;;;;;;;;;;;5058015;28;19917;-67
2023/06/03 00:14:38;;;;;;;;;;;;;;;;;;5068220;28;19939;-67
2023/06/03 00:17:04;;;;;;;;;;;;;;;;;;5069941;28;20344;-67
2023/06/03 00:19:30;;;;;;;;;;;;;;;;;;5058587;28;19912;-67
2023/06/03 00:21:56;;;;;;;;;;;;;;;;;;5063741;28;20391;-67
2023/06/03 00:24:23;;;;;;;;;;;;;;;;;;5071435;28;19916;-67
2023/06/03 00:26:49;;;;;;;;;;;;;;;;;;5063706;28;20266;-67
2023/06/03 00:29:15;;;;;;;;;;;;;;;;;;5062307;28;19916;-67
2023/06/03 00:31:41;;;;;;;;;;;;;;;;;;5078433;28;20003;-67
2023/06/03 00:34:07;;;;;;;;;;;;;;;;;;5073722;28;19951;-67
2023/06/03 00:36:33;;;;;;;;;;;;;;;;;;5059561;28;19916;-67
2023/06/03 00:38:59;;;;;;;;;;;;;;;;;;5070978;28;19913;-67
2023/06/03 00:41:25;;;;;;;;;;;;;;;;;;5072928;28;20283;-66
2023/06/03 00:43:51;;;;;;;;;;;;;;;;;;5055594;28;20475;-67
2023/06/03 00:46:17;;;;;;;;;;;;;;;;;;5058445;28;19944;-67
2023/06/03 00:48:43;;;;;;;;;;;;;;;;;;5072851;28;19919;-67
2023/06/03 00:51:09;;;;;;;;;;;;;;;;;;5057813;28;19920;-67
2023/06/03 00:53:35;;;;;;;;;;;;;;;;;;5069646;28;19962;-67
2023/06/03 00:56:01;;;;;;;;;;;;;;;;;;5069509;28;19916;-66
2023/06/03 00:58:27;;;;;;;;;;;;;;;;;;5074324;28;20317;-67
2023/06/03 01:00:53;;;;;;;;;;;;;;;;;;5069009;28;19959;-66
2023/06/03 01:03:19;;;;;;;;;;;;;;;;;;5068919;28;19996;-66
2023/06/03 01:05:45;;;;;;;;;;;;;;;;;;5069308;28;19931;-66
2023/06/03 01:08:13;;;;;;;;;;;;;;;;;;5062787;28;19917;-67
2023/06/03 01:10:39;;;;;;;;;;;;;;;;;;5068951;28;19966;-67
2023/06/03 01:13:05;;;;;;;;;;;;;;;;;;5069022;28;19916;-67
2023/06/03 01:15:31;;;;;;;;;;;;;;;;;;5062184;28;20019;-67
2023/06/03 01:17:57;;;;;;;;;;;;;;;;;;5058377;28;19920;-67
2023/06/03 01:20:26;;;;;;;;;;;;;;;;;;5081629;28;19920;-66
2023/06/03 01:22:56;;;;;;;;;;;;;;;;;;5093918;28;19919;-67
2023/06/03 01:25:23;;;;;;;;;;;;;;;;;;5076567;28;19958;-67
2023/06/03 01:27:51;;;;;;;;;;;;;;;;;;5053925;28;19913;-66
2023/06/03 01:30:16;;;;;;;;;;;;;;;;;;5061776;28;19943;-66
2023/06/03 01:32:42;;;;;;;;;;;;;;;;;;5069328;28;20353;-66
2023/06/03 01:35:08;;;;;;;;;;;;;;;;;;5055406;28;19917;-67
2023/06/03 01:37:34;;;;;;;;;;;;;;;;;;5058494;28;19962;-67
2023/06/03 01:40:01;;;;;;;;;;;;;;;;;;5064656;28;19908;-67
2023/06/03 01:42:27;;;;;;;;;;;;;;;;;;5073057;28;19909;-66
2023/06/03 01:44:53;;;;;;;;;;;;;;;;;;5070938;28;19948;-67
2023/06/03 01:47:19;;;;;;;;;;;;;;;;;;5086412;28;19920;-66
2023/06/03 01:49:45;;;;;;;;;;;;;;;;;;5066097;28;19921;-66
2023/06/03 01:52:10;;;;;;;;;;;;;;;;;;5052172;28;19979;-67
2023/06/03 01:54:36;;;;;;;;;;;;;;;;;;5065979;28;19916;-67
2023/06/03 01:57:02;;;;;;;;;;;;;;;;;;5062212;28;20040;-66
2023/06/03 01:59:28;;;;;;;;;;;;;;;;;;5071233;28;20364;-66
2023/06/03 02:01:54;;;;;;;;;;;;;;;;;;5061730;28;19963;-67
2023/06/03 02:04:20;;;;;;;;;;;;;;;;;;5052763;28;19915;-67
2023/06/03 02:06:46;;;;;;;;;;;;;;;;;;5065096;28;19963;-67
2023/06/03 02:09:12;;;;;;;;;;;;;;;;;;5055674;28;20401;-66
2023/06/03 02:11:38;;;;;;;;;;;;;;;;;;5049918;28;19916;-67
2023/06/03 02:14:04;;;;;;;;;;;;;;;;;;5068928;28;19912;-66
2023/06/03 02:16:30;;;;;;;;;;;;;;;;;;5064743;28;20334;-67
2023/06/03 02:18:55;;;;;;;;;;;;;;;;;;5072000;28;20426;-66
2023/06/03 02:21:21;;;;;;;;;;;;;;;;;;5050885;28;19994;-66
2023/06/03 02:23:47;;;;;;;;;;;;;;;;;;5077485;28;19923;-66
2023/06/03 02:26:14;;;;;;;;;;;;;;;;;;5070572;28;19912;-67
2023/06/03 02:28:40;;;;;;;;;;;;;;;;;;5065047;28;19913;-67
2023/06/03 02:31:06;;;;;;;;;;;;;;;;;;5069847;28;20380;-67
2023/06/03 02:33:32;;;;;;;;;;;;;;;;;;5073701;28;19912;-67
2023/06/03 02:35:58;;;;;;;;;;;;;;;;;;5076402;28;20322;-66
2023/06/03 02:38:24;;;;;;;;;;;;;;;;;;5069485;28;19965;-67
2023/06/03 02:40:49;;;;;;;;;;;;;;;;;;5060912;28;19913;-67
2023/06/03 02:43:15;;;;;;;;;;;;;;;;;;5059623;28;19913;-67
2023/06/03 02:45:41;;;;;;;;;;;;;;;;;;5071353;28;20038;-67
2023/06/03 02:48:07;;;;;;;;;;;;;;;;;;5066359;28;20348;-67
2023/06/03 02:50:33;;;;;;;;;;;;;;;;;;5070264;28;19966;-66
2023/06/03 02:53:00;;;;;;;;;;;;;;;;;;5066947;28;20328;-66
2023/06/03 02:55:27;;;;;;;;;;;;;;;;;;5071329;28;20042;-67
2023/06/03 02:57:53;;;;;;;;;;;;;;;;;;5066751;28;20395;-67
2023/06/03 03:00:18;;;;;;;;;;;;;;;;;;5070542;28;19996;-68
2023/06/03 03:02:44;;;;;;;;;;;;;;;;;;5053904;28;19913;-66
2023/06/03 03:05:10;;;;;;;;;;;;;;;;;;5062999;28;19919;-67
2023/06/03 03:07:37;;;;;;;;;;;;;;;;;;5067249;28;19939;-67
2023/06/03 03:10:04;;;;;;;;;;;;;;;;;;5078707;28;20415;-68
2023/06/03 03:12:29;;;;;;;;;;;;;;;;;;5062018;28;20003;-67
2023/06/03 03:14:56;;;;;;;;;;;;;;;;;;5065039;28;20035;-67
2023/06/03 03:17:21;;;;;;;;;;;;;;;;;;5070143;28;19927;-67
2023/06/03 03:19:47;;;;;;;;;;;;;;;;;;5040851;28;20392;-67
2023/06/03 03:22:13;;;;;;;;;;;;;;;;;;5071809;28;19919;-67
2023/06/03 03:24:40;;;;;;;;;;;;;;;;;;5066829;28;20002;-67
2023/06/03 03:27:06;;;;;;;;;;;;;;;;;;5058442;28;19913;-67
2023/06/03 03:29:33;;;;;;;;;;;;;;;;;;5052367;28;20002;-67
2023/06/03 03:31:59;;;;;;;;;;;;;;;;;;5062667;28;20296;-66
2023/06/03 03:34:25;;;;;;;;;;;;;;;;;;5069576;28;19912;-66
2023/06/03 03:36:51;;;;;;;;;;;;;;;;;;5065317;28;19917;-67
2023/06/03 03:39:17;;;;;;;;;;;;;;;;;;5061377;28;19954;-67
2023/06/03 03:41:42;;;;;;;;;;;;;;;;;;5069932;28;19959;-67
2023/06/03 03:44:08;;;;;;;;;;;;;;;;;;5068230;28;19965;-67
2023/06/03 03:46:35;;;;;;;;;;;;;;;;;;5060114;28;20049;-67
2023/06/03 03:49:01;;;;;;;;;;;;;;;;;;5083515;28;19908;-66
2023/06/03 03:51:27;;;;;;;;;;;;;;;;;;5080186;28;19913;-66
2023/06/03 03:53:52;;;;;;;;;;;;;;;;;;5064711;28;19917;-66
2023/06/03 03:56:19;;;;;;;;;;;;;;;;;;5069884;28;19921;-67
2023/06/03 03:58:45;;;;;;;;;;;;;;;;;;5074312;28;20308;-67
2023/06/03 04:01:12;;;;;;;;;;;;;;;;;;5067161;28;20384;-67
2023/06/03 04:03:41;;;;;;;;;;;;;;;;;;5060461;28;19920;-67
2023/06/03 04:06:07;;;;;;;;;;;;;;;;;;5068297;28;19912;-67
2023/06/03 04:08:33;;;;;;;;;;;;;;;;;;5066297;28;19943;-67
2023/06/03 04:10:59;;;;;;;;;;;;;;;;;;5072572;28;20006;-67
2023/06/03 04:13:24;;;;;;;;;;;;;;;;;;5059974;28;19959;-67
2023/06/03 04:15:51;;;;;;;;;;;;;;;;;;5069315;28;19921;-67
2023/06/03 04:18:17;;;;;;;;;;;;;;;;;;5069706;28;20658;-67
2023/06/03 04:20:43;;;;;;;;;;;;;;;;;;5070226;28;20003;-67
2023/06/03 04:23:08;;;;;;;;;;;;;;;;;;5067093;28;20335;-67
2023/06/03 04:25:34;;;;;;;;;;;;;;;;;;5071178;28;19955;-68
2023/06/03 04:28:00;;;;;;;;;;;;;;;;;;5068273;28;19929;-67
2023/06/03 04:30:26;;;;;;;;;;;;;;;;;;5072714;28;19915;-67
2023/06/03 04:32:52;;;;;;;;;;;;;;;;;;5070911;28;20014;-67
2023/06/03 04:35:18;;;;;;;;;;;;;;;;;;5064337;28;19912;-68
2023/06/03 04:37:44;;;;;;;;;;;;;;;;;;5068276;28;19940;-67
2023/06/03 04:40:10;;;;;;;;;;;;;;;;;;5077663;28;19995;-67
2023/06/03 04:42:36;;;;;;;;;;;;;;;;;;5072523;28;20013;-67
2023/06/03 04:45:03;;;;;;;;;;;;;;;;;;5053329;28;20399;-67
2023/06/03 04:47:29;;;;;;;;;;;;;;;;;;5049632;28;20501;-67
2023/06/03 04:49:55;;;;;;;;;;;;;;;;;;5052542;28;19967;-68
2023/06/03 04:52:22;;;;;;;;;;;;;;;;;;5060821;28;19943;-68
2023/06/03 04:54:48;;;;;;;;;;;;;;;;;;5071955;28;19912;-68
2023/06/03 04:57:14;;;;;;;;;;;;;;;;;;5074908;28;19923;-68
2023/06/03 04:59:43;;;;;;;;;;;;;;;;;;5070621;28;20353;-68
2023/06/03 05:02:13;;;;;;;;;;;;;;;;;;5064171;28;20008;-67
2023/06/03 05:04:40;;;;;;;;;;;;;;;;;;5066289;28;19920;-67
2023/06/03 05:07:06;;;;;;;;;;;;;;;;;;5069134;28;19983;-67
2023/06/03 05:09:32;;;;;;;;;;;;;;;;;;5056574;28;20075;-67
2023/06/03 05:11:58;;;;;;;;;;;;;;;;;;5073517;28;19920;-68
2023/06/03 05:14:25;;;;;;;;;;;;;;;;;;5062735;28;19952;-67
2023/06/03 05:16:51;;;;;;;;;;;;;;;;;;5062655;28;19920;-67
2023/06/03 05:19:17;;;;;;;;;;;;;;;;;;5060874;28;19951;-67
2023/06/03 05:21:43;;;;;;;;;;;;;;;;;;5072058;28;19917;-67
2023/06/03 05:24:08;;;;;;;;;;;;;;;;;;5063046;28;20002;-67
2023/06/03 05:26:35;;;;;;;;;;;;;;;;;;5064215;28;19998;-67
2023/06/03 05:29:00;;;;;;;;;;;;;;;;;;5065962;28;19909;-67
2023/06/03 05:31:26;;;;;;;;;;;;;;;;;;5071912;28;20039;-68
2023/06/03 05:33:52;;;;;;;;;;;;;;;;;;5062138;28;20336;-68
2023/06/03 05:36:18;;;;;;;;;;;;;;;;;;5053288;28;19917;-68
2023/06/03 05:38:45;;;;;;;;;;;;;;;;;;5053173;28;19981;-67
2023/06/03 05:41:11;;;;;;;;;;;;;;;;;;5057599;28;20558;-68
2023/06/03 05:43:37;;;;;;;;;;;;;;;;;;5070403;28;20000;-68
2023/06/03 05:46:02;;;;;;;;;;;;;;;;;;5058958;28;20011;-68
2023/06/03 05:48:28;;;;;;;;;;;;;;;;;;5058806;28;20007;-67
2023/06/03 05:50:54;;;;;;;;;;;;;;;;;;5067378;28;19908;-67
2023/06/03 05:53:20;;;;;;;;;;;;;;;;;;5072962;28;19917;-68
2023/06/03 05:55:46;;;;;;;;;;;;;;;;;;5072947;28;19938;-68
2023/06/03 05:58:12;;;;;;;;;;;;;;;;;;5071035;28;19952;-68
2023/06/03 06:00:38;;;;;;;;;;;;;;;;;;5065884;28;19917;-68
2023/06/03 06:03:04;;;;;;;;;;;;;;;;;;5063521;28;20382;-67
2023/06/03 06:05:30;;;;;;;;;;;;;;;;;;5079412;28;19916;-68
2023/06/03 06:07:56;;;;;;;;;;;;;;;;;;5072702;28;19935;-67
2023/06/03 06:10:22;;;;;;;;;;;;;;;;;;5058764;28;19943;-67
2023/06/03 06:12:48;;;;;;;;;;;;;;;;;;5055934;28;19913;-67
2023/06/03 06:15:14;;;;;;;;;;;;;;;;;;5059378;28;19955;-67
2023/06/03 06:17:40;;;;;;;;;;;;;;;;;;5068000;28;19918;-67
2023/06/03 06:20:06;;;;;;;;;;;;;;;;;;5059479;28;19951;-68
2023/06/03 06:22:32;;;;;;;;;;;;;;;;;;5072372;28;20261;-67
2023/06/03 06:24:58;;;;;;;;;;;;;;;;;;5062213;28;19986;-67
2023/06/03 06:27:24;;;;;;;;;;;;;;;;;;5072208;28;19912;-67
2023/06/03 06:29:50;;;;;;;;;;;;;;;;;;5071926;28;20394;-68
2023/06/03 06:32:16;;;;;;;;;;;;;;;;;;5068820;28;19920;-68
2023/06/03 06:34:42;;;;;;;;;;;;;;;;;;5052185;28;20795;-68
2023/06/03 06:37:09;;;;;;;;;;;;;;;;;;5061945;28;19917;-68
2023/06/03 06:39:35;;;;;;;;;;;;;;;;;;5054597;28;19920;-68
2023/06/03 06:42:01;;;;;;;;;;;;;;;;;;5072090;28;19958;-67
2023/06/03 06:44:27;;;;;;;;;;;;;;;;;;5050089;28;19940;-68
2023/06/03 06:46:53;;;;;;;;;;;;;;;;;;5055192;28;20003;-68
2023/06/03 06:49:19;;;;;;;;;;;;;;;;;;5045962;28;19924;-67
2023/06/03 06:51:45;;;;;;;;;;;;;;;;;;5051996;28;20462;-68
2023/06/03 06:54:11;;;;;;;;;;;;;;;;;;5059336;28;19944;-68
2023/06/03 06:56:37;;;;;;;;;;;;;;;;;;5083677;28;20413;-68
2023/06/03 06:59:03;;;;;;;;;;;;;;;;;;5066749;28;20003;-68
2023/06/03 07:01:29;;;;;;;;;;;;;;;;;;5061712;28;19957;-68
2023/06/03 07:03:55;;;;;;;;;;;;;;;;;;5063908;28;19958;-68
2023/06/03 07:06:20;;;;;;;;;;;;;;;;;;5066063;28;19937;-67
2023/06/03 07:08:46;;;;;;;;;;;;;;;;;;5060235;28;19913;-68
2023/06/03 07:11:12;;;;;;;;;;;;;;;;;;5065710;28;20328;-68
2023/06/03 07:13:38;;;;;;;;;;;;;;;;;;5072510;28;19928;-67
2023/06/03 07:16:04;;;;;;;;;;;;;;;;;;5062645;28;19960;-68
2023/06/03 07:18:30;;;;;;;;;;;;;;;;;;5061304;28;19966;-68
2023/06/03 07:20:57;;;;;;;;;;;;;;;;;;5063395;28;19975;-69
2023/06/03 07:23:22;;;;;;;;;;;;;;;;;;5069901;28;19946;-68
2023/06/03 07:25:49;;;;;;;;;;;;;;;;;;5062506;28;20026;-68
2023/06/03 07:28:14;;;;;;;;;;;;;;;;;;5059218;28;20398;-68
2023/06/03 07:30:40;;;;;;;;;;;;;;;;;;5066534;28;19913;-68
2023/06/03 07:33:06;;;;;;;;;;;;;;;;;;5063400;28;19920;-68
2023/06/03 07:35:32;;;;;;;;;;;;;;;;;;5076594;28;20000;-68
2023/06/03 07:37:58;;;;;;;;;;;;;;;;;;5072241;28;19966;-68
2023/06/03 07:40:24;;;;;;;;;;;;;;;;;;5065109;28;20330;-68
2023/06/03 07:42:50;;;;;;;;;;;;;;;;;;5061333;28;20342;-69
2023/06/03 07:45:16;;;;;;;;;;;;;;;;;;5073401;28;19956;-68
2023/06/03 07:47:42;;;;;;;;;;;;;;;;;;5065821;28;19920;-68
2023/06/03 07:50:08;;;;;;;;;;;;;;;;;;5056244;28;19935;-68
2023/06/03 07:52:33;;;;;;;;;;;;;;;;;;5072093;28;19912;-68
2023/06/03 07:55:00;;;;;;;;;;;;;;;;;;5077343;28;19925;-69
2023/06/03 07:57:25;;;;;;;;;;;;;;;;;;5073166;28;19963;-68
2023/06/03 07:59:52;;;;;;;;;;;;;;;;;;5053534;28;20329;-68
2023/06/03 08:02:18;;;;;;;;;;;;;;;;;;5058098;28;20288;-68
2023/06/03 08:04:44;;;;;;;;;;;;;;;;;;5065395;28;19952;-68
2023/06/03 08:07:10;;;;;;;;;;;;;;;;;;5067998;28;20003;-69
2023/06/03 08:09:36;;;;;;;;;;;;;;;;;;5064461;28;19913;-69
2023/06/03 08:12:02;;;;;;;;;;;;;;;;;;5062421;28;19982;-69
2023/06/03 08:14:28;;;;;;;;;;;;;;;;;;5058759;28;20321;-69
2023/06/03 08:16:54;;;;;;;;;;;;;;;;;;5066897;28;19916;-69
2023/06/03 08:19:20;;;;;;;;;;;;;;;;;;5063320;28;19935;-69
2023/06/03 08:21:46;;;;;;;;;;;;;;;;;;5065749;28;19943;-69
2023/06/03 08:24:13;;;;;;;;;;;;;;;;;;5072019;28;19971;-69
2023/06/03 08:26:39;;;;;;;;;;;;;;;;;;5058308;28;19917;-69
2023/06/03 08:29:04;;;;;;;;;;;;;;;;;;5058131;28;19917;-69
2023/06/03 08:31:32;;;;;;;;;;;;;;;;;;5056812;28;20360;-68
2023/06/03 08:33:58;;;;;;;;;;;;;;;;;;5058645;28;19916;-68
2023/06/03 08:36:23;;;;;;;;;;;;;;;;;;5062572;28;20039;-69
2023/06/03 08:38:49;;;;;;;;;;;;;;;;;;5062857;28;20384;-68
2023/06/03 08:41:15;;;;;;;;;;;;;;;;;;5069534;28;19917;-69
2023/06/03 08:43:41;;;;;;;;;;;;;;;;;;5065542;28;20351;-68
2023/06/03 08:46:07;;;;;;;;;;;;;;;;;;5054467;28;19913;-68
2023/06/03 08:48:33;;;;;;;;;;;;;;;;;;5057743;28;20467;-68
2023/06/03 08:50:59;;;;;;;;;;;;;;;;;;5051841;28;19912;-68
2023/06/03 08:53:25;;;;;;;;;;;;;;;;;;5067249;28;19919;-67
2023/06/03 08:55:51;;;;;;;;;;;;;;;;;;5070106;28;20367;-68
2023/06/03 08:58:17;;;;;;;;;;;;;;;;;;5071112;28;19996;-68
2023/06/03 09:00:43;;;;;;;;;;;;;;;;;;5061012;28;19998;-68
2023/06/03 09:03:10;;;;;;;;;;;;;;;;;;5065951;28;19959;-68
2023/06/03 09:05:36;;;;;;;;;;;;;;;;;;5062186;28;19915;-67
2023/06/03 09:08:02;;;;;;;;;;;;;;;;;;5061526;28;20022;-67
2023/06/03 09:10:28;;;;;;;;;;;;;;;;;;5062657;28;19912;-68
2023/06/03 09:12:56;;;;;;;;;;;;;;;;;;5070862;28;19913;-67
2023/06/03 09:15:22;;;;;;;;;;;;;;;;;;5052794;28;20295;-67
2023/06/03 09:17:48;;;;;;;;;;;;;;;;;;5071564;28;19915;-68
2023/06/03 09:20:14;;;;;;;;;;;;;;;;;;5068700;28;19916;-68
2023/06/03 09:22:40;;;;;;;;;;;;;;;;;;5069883;28;19965;-67
2023/06/03 09:25:06;;;;;;;;;;;;;;;;;;5061545;28;19982;-67
2023/06/03 09:27:32;;;;;;;;;;;;;;;;;;5064116;28;19923;-68
2023/06/03 09:29:58;;;;;;;;;;;;;;;;;;5061042;28;19927;-67
2023/06/03 09:32:24;;;;;;;;;;;;;;;;;;5059677;28;19960;-67
2023/06/03 09:34:50;;;;;;;;;;;;;;;;;;5063807;28;19940;-67
2023/06/03 09:37:16;;;;;;;;;;;;;;;;;;5059613;28;19917;-68
2023/06/03 09:39:42;;;;;;;;;;;;;;;;;;5062035;28;19997;-68
2023/06/03 09:42:08;;;;;;;;;;;;;;;;;;5065820;28;19919;-68
2023/06/03 09:44:34;;;;;;;;;;;;;;;;;;5066542;28;19956;-68
2023/06/03 09:47:00;;;;;;;;;;;;;;;;;;5064192;28;19993;-68
2023/06/03 09:49:26;;;;;;;;;;;;;;;;;;5060549;28;19912;-67
2023/06/03 09:51:52;;;;;;;;;;;;;;;;;;5058089;28;20396;-68
2023/06/03 09:54:18;;;;;;;;;;;;;;;;;;5069127;28;20011;-67
2023/06/03 09:56:47;;;;;;;;;;;;;;;;;;5063036;28;19966;-67
2023/06/03 09:59:13;;;;;;;;;;;;;;;;;;5062822;28;19943;-68
2023/06/03 10:01:39;;;;;;;;;;;;;;;;;;5065054;28;20001;-66
2023/06/03 10:04:05;;;;;;;;;;;;;;;;;;5055465;28;19912;-67
2023/06/03 10:06:32;;;;;;;;;;;;;;;;;;5069334;28;19919;-67
2023/06/03 10:09:00;;;;;;;;;;;;;;;;;;5066110;28;20007;-68
2023/06/03 10:11:26;;;;;;;;;;;;;;;;;;5057906;28;19917;-68
2023/06/03 10:13:52;;;;;;;;;;;;;;;;;;5062664;28;19965;-68
2023/06/03 10:16:17;;;;;;;;;;;;;;;;;;5059632;28;20416;-60
2023/06/03 10:18:43;;;;;;;;;;;;;;;;;;5047715;28;19917;-59
2023/06/03 10:21:10;;;;;;;;;;;;;;;;;;5066877;28;19984;-59
2023/06/03 10:23:35;;;;;;;;;;;;;;;;;;5071612;28;19916;-60
2023/06/03 10:26:01;;;;;;;;;;;;;;;;;;5062879;28;19970;-60
2023/06/03 10:28:27;;;;;;;;;;;;;;;;;;5066664;28;20403;-60
2023/06/03 10:30:53;;;;;;;;;;;;;;;;;;5067321;28;19951;-60
2023/06/03 10:33:19;;;;;;;;;;;;;;;;;;5062793;28;19958;-60
2023/06/03 10:35:45;;;;;;;;;;;;;;;;;;5057594;28;20438;-60
2023/06/03 10:38:11;;;;;;;;;;;;;;;;;;5064663;28;20046;-60
2023/06/03 10:40:37;;;;;;;;;;;;;;;;;;5062325;28;19938;-61
2023/06/03 10:43:03;;;;;;;;;;;;;;;;;;5055314;28;19985;-60
2023/06/03 10:45:29;;;;;;;;;;;;;;;;;;5065282;28;19954;-60
2023/06/03 10:47:55;;;;;;;;;;;;;;;;;;5062083;28;19959;-60
2023/06/03 10:50:21;;;;;;;;;;;;;;;;;;5062405;28;19944;-60
2023/06/03 10:52:48;;;;;;;;;;;;;;;;;;5065340;28;19912;-60
2023/06/03 10:55:14;;;;;;;;;;;;;;;;;;5072360;28;19913;-60
2023/06/03 10:57:40;;;;;;;;;;;;;;;;;;5070908;28;19916;-59
2023/06/03 11:00:06;;;;;;;;;;;;;;;;;;5063864;28;19967;-59
2023/06/03 11:02:32;;;;;;;;;;;;;;;;;;5065224;28;19921;-60
2023/06/03 11:04:58;;;;;;;;;;;;;;;;;;5054015;28;21009;-60
2023/06/03 11:07:25;;;;;;;;;;;;;;;;;;5069998;28;19916;-60
2023/06/03 11:09:51;;;;;;;;;;;;;;;;;;5049692;28;19921;-60
2023/06/03 11:12:17;;;;;;;;;;;;;;;;;;5069580;28;19912;-60
2023/06/03 11:14:48;;;;;;;;;;;;;;;;;;5064373;28;19968;-60
2023/06/03 11:17:15;;;;;;;;;;;;;;;;;;5070194;28;19924;-61
2023/06/03 11:19:41;;;;;;;;;;;;;;;;;;5069091;28;19921;-60
2023/06/03 11:22:07;;;;;;;;;;;;;;;;;;5066899;28;19975;-60
2023/06/03 11:24:33;;;;;;;;;;;;;;;;;;5062456;28;19955;-60
2023/06/03 11:26:59;;;;;;;;;;;;;;;;;;5063457;28;19936;-60
2023/06/03 11:29:25;;;;;;;;;;;;;;;;;;5063536;28;19928;-60
2023/06/03 11:31:51;;;;;;;;;;;;;;;;;;5071496;28;19915;-60
2023/06/03 11:34:17;;;;;;;;;;;;;;;;;;5068913;28;19916;-60
2023/06/03 11:36:43;;;;;;;;;;;;;;;;;;5062106;28;20399;-60
2023/06/03 11:39:09;;;;;;;;;;;;;;;;;;5062579;28;20007;-60
2023/06/03 11:41:35;;;;;;;;;;;;;;;;;;5058472;28;20003;-60
2023/06/03 11:44:01;;;;;;;;;;;;;;;;;;5059646;28;20388;-60
2023/06/03 11:46:27;;;;;;;;;;;;;;;;;;5061755;28;19923;-62
2023/06/03 11:48:52;;;;;;;;;;;;;;;;;;5058466;28;20262;-60
2023/06/03 11:51:18;;;;;;;;;;;;;;;;;;5055088;28;19941;-60
2023/06/03 11:53:44;;;;;;;;;;;;;;;;;;5056601;28;19919;-60
2023/06/03 11:56:11;;;;;;;;;;;;;;;;;;5045990;28;19923;-59
2023/06/03 11:58:37;;;;;;;;;;;;;;;;;;5066337;28;20372;-60
2023/06/03 12:01:03;;;;;;;;;;;;;;;;;;5061878;28;20011;-60
2023/06/03 12:03:29;;;;;;;;;;;;;;;;;;5068374;28;19969;-59
2023/06/03 12:06:01;;;;;;;;;;;;;;;;;;5067427;28;20388;-60
2023/06/03 12:08:27;;;;;;;;;;;;;;;;;;5053841;28;19942;-59
2023/06/03 12:10:53;;;;;;;;;;;;;;;;;;5051994;28;20442;-59
2023/06/03 12:13:19;;;;;;;;;;;;;;;;;;5071678;28;20008;-60
2023/06/03 12:15:45;;;;;;;;;;;;;;;;;;5076328;28;19975;-61
2023/06/03 12:18:11;;;;;;;;;;;;;;;;;;5068108;28;20383;-60
2023/06/03 12:20:37;;;;;;;;;;;;;;;;;;5062824;28;20007;-65
2023/06/03 12:23:06;;;;;;;;;;;;;;;;;;5066236;28;19921;-65
2023/06/03 12:25:32;;;;;;;;;;;;;;;;;;5059611;28;19917;-65
2023/06/03 12:27:59;;;;;;;;;;;;;;;;;;5070286;28;20368;-65
2023/06/03 12:30:25;;;;;;;;;;;;;;;;;;5065968;28;19920;-66
2023/06/03 12:32:56;;;;;;;;;;;;;;;;;;5066136;28;19955;-64
2023/06/03 12:35:22;;;;;;;;;;;;;;;;;;5057290;28;19913;-65
2023/06/03 12:37:48;;;;;;;;;;;;;;;;;;5046678;28;19989;-64
2023/06/03 12:40:14;;;;;;;;;;;;;;;;;;5065738;28;19916;-65
2023/06/03 12:42:42;;;;;;;;;;;;;;;;;;5058164;28;19912;-65
2023/06/03 12:45:08;;;;;;;;;;;;;;;;;;5061179;28;20289;-63
2023/06/03 12:47:34;;;;;;;;;;;;;;;;;;5065280;28;19923;-65
2023/06/03 12:50:00;;;;;;;;;;;;;;;;;;5070059;28;20385;-65
2023/06/03 12:52:27;;;;;;;;;;;;;;;;;;5059383;28;19997;-65
2023/06/03 12:54:54;;;;;;;;;;;;;;;;;;5066263;28;19981;-64
2023/06/03 12:57:21;;;;;;;;;;;;;;;;;;5065196;28;19925;-66
2023/06/03 12:59:47;;;;;;;;;;;;;;;;;;5067436;28;19913;-66
2023/06/03 13:02:12;;;;;;;;;;;;;;;;;;5066988;28;19974;-64
2023/06/03 13:04:38;;;;;;;;;;;;;;;;;;5059707;28;19917;-63
2023/06/03 13:07:04;;;;;;;;;;;;;;;;;;5068409;28;19967;-63
2023/06/03 13:09:30;;;;;;;;;;;;;;;;;;5059187;28;20003;-63
2023/06/03 13:11:56;;;;;;;;;;;;;;;;;;5062488;28;19913;-65
2023/06/03 13:14:22;;;;;;;;;;;;;;;;;;5063847;28;20319;-64
2023/06/03 13:16:48;;;;;;;;;;;;;;;;;;5066934;28;20013;-63
2023/06/03 13:19:14;;;;;;;;;;;;;;;;;;5061735;28;20041;-64
2023/06/03 13:21:40;;;;;;;;;;;;;;;;;;5067117;28;20386;-63
2023/06/03 13:24:06;;;;;;;;;;;;;;;;;;5069053;28;19909;-63
2023/06/03 13:26:32;;;;;;;;;;;;;;;;;;5065220;28;19912;-66
2023/06/03 13:28:58;;;;;;;;;;;;;;;;;;5065038;28;19979;-66
2023/06/03 13:31:24;;;;;;;;;;;;;;;;;;5067849;28;19916;-65
2023/06/03 13:33:50;;;;;;;;;;;;;;;;;;5068731;28;19923;-65
2023/06/03 13:36:16;;;;;;;;;;;;;;;;;;5068700;28;20371;-65
2023/06/03 13:38:42;;;;;;;;;;;;;;;;;;5068984;28;20040;-65
2023/06/03 13:41:08;;;;;;;;;;;;;;;;;;5057599;28;19956;-65
2023/06/03 13:43:34;;;;;;;;;;;;;;;;;;5064191;28;20360;-64
2023/06/03 13:46:00;;;;;;;;;;;;;;;;;;5061677;28;19991;-64
2023/06/03 13:48:26;;;;;;;;;;;;;;;;;;5071969;28;19982;-64
2023/06/03 13:50:53;;;;;;;;;;;;;;;;;;5068284;28;20372;-65
2023/06/03 13:53:19;;;;;;;;;;;;;;;;;;5061509;28;20062;-64
2023/06/03 13:55:44;;;;;;;;;;;;;;;;;;5062951;28;20011;-63
2023/06/03 13:58:10;;;;;;;;;;;;;;;;;;5065557;28;19960;-63
2023/06/03 14:00:36;;;;;;;;;;;;;;;;;;5061832;28;19957;-64
2023/06/03 14:03:04;;;;;;;;;;;;;;;;;;5068978;28;19912;-65
2023/06/03 14:05:30;;;;;;;;;;;;;;;;;;5068548;28;19966;-65
2023/06/03 14:07:56;;;;;;;;;;;;;;;;;;5060415;28;19995;-64
2023/06/03 14:10:22;;;;;;;;;;;;;;;;;;5060540;28;20013;-64
2023/06/03 14:12:48;;;;;;;;;;;;;;;;;;5063932;28;19912;-65
2023/06/03 14:15:14;;;;;;;;;;;;;;;;;;5064348;28;19927;-65
2023/06/03 14:17:41;;;;;;;;;;;;;;;;;;5057151;28;19917;-65
2023/06/03 14:20:06;;;;;;;;;;;;;;;;;;5070025;28;19919;-65
2023/06/03 14:22:32;;;;;;;;;;;;;;;;;;5065723;28;20373;-65
2023/06/03 14:24:58;;;;;;;;;;;;;;;;;;5057711;28;20384;-65
2023/06/03 14:27:24;;;;;;;;;;;;;;;;;;5063610;28;19919;-64
2023/06/03 14:29:50;;;;;;;;;;;;;;;;;;5067917;28;19956;-64
2023/06/03 14:32:16;;;;;;;;;;;;;;;;;;5060674;28;19913;-64
2023/06/03 14:34:42;;;;;;;;;;;;;;;;;;5062636;28;20407;-66
2023/06/03 14:37:08;;;;;;;;;;;;;;;;;;5071393;28;19916;-64
2023/06/03 14:39:34;;;;;;;;;;;;;;;;;;5070364;28;20320;-64
2023/06/03 14:41:59;;;;;;;;;;;;;;;;;;5067867;28;20009;-64
2023/06/03 14:44:25;;;;;;;;;;;;;;;;;;5067374;28;19943;-65
2023/06/03 14:46:51;;;;;;;;;;;;;;;;;;5056941;28;20395;-64
2023/06/03 14:49:17;;;;;;;;;;;;;;;;;;5068093;28;19916;-64
2023/06/03 14:51:43;;;;;;;;;;;;;;;;;;5067433;28;20322;-65
2023/06/03 14:54:09;;;;;;;;;;;;;;;;;;5066823;28;19948;-63
2023/06/03 14:56:35;;;;;;;;;;;;;;;;;;5056742;28;19921;-64
2023/06/03 14:59:01;;;;;;;;;;;;;;;;;;5052276;28;19987;-63
2023/06/03 15:01:27;;;;;;;;;;;;;;;;;;5071403;28;19967;-63
2023/06/03 15:03:53;;;;;;;;;;;;;;;;;;5066043;28;20007;-66
2023/06/03 15:06:19;;;;;;;;;;;;;;;;;;5060195;28;19920;-65
2023/06/03 15:08:45;;;;;;;;;;;;;;;;;;5065628;28;19956;-65
2023/06/03 15:11:10;;;;;;;;;;;;;;;;;;5070292;28;19991;-66
2023/06/03 15:13:36;;;;;;;;;;;;;;;;;;5067592;28;19958;-65
2023/06/03 15:16:02;;;;;;;;;;;;;;;;;;5061900;28;20388;-65
2023/06/03 15:18:29;;;;;;;;;;;;;;;;;;5065703;28;20395;-63
2023/06/03 15:20:55;;;;;;;;;;;;;;;;;;5058983;28;20287;-63
2023/06/03 15:23:20;;;;;;;;;;;;;;;;;;5054871;28;19937;-65
2023/06/03 15:25:46;;;;;;;;;;;;;;;;;;5061250;28;20018;-65
2023/06/03 15:28:13;;;;;;;;;;;;;;;;;;5058102;28;20372;-65
2023/06/03 15:30:39;;;;;;;;;;;;;;;;;;5058352;28;19995;-65
2023/06/03 15:33:05;;;;;;;;;;;;;;;;;;5058216;28;20316;-65
2023/06/03 15:35:33;;;;;;;;;;;;;;;;;;5059513;28;21553;-65
2023/06/03 15:37:59;;;;;;;;;;;;;;;;;;5079689;28;19965;-65
2023/06/03 15:40:24;;;;;;;;;;;;;;;;;;5074609;28;19916;-66
2023/06/03 15:42:50;;;;;;;;;;;;;;;;;;5070816;28;19951;-64
2023/06/03 15:45:16;;;;;;;;;;;;;;;;;;5061382;28;19913;-65
2023/06/03 15:47:42;;;;;;;;;;;;;;;;;;5066079;28;19919;-65
2023/06/03 15:50:08;;;;;;;;;;;;;;;;;;5052391;28;19955;-65
2023/06/03 15:52:34;;;;;;;;;;;;;;;;;;5062650;28;19931;-65
2023/06/03 15:55:00;;;;;;;;;;;;;;;;;;5058029;28;20006;-65
2023/06/03 15:57:26;;;;;;;;;;;;;;;;;;5065583;28;20001;-65
2023/06/03 15:59:52;;;;;;;;;;;;;;;;;;5063161;28;20021;-65
2023/06/03 16:02:18;;;;;;;;;;;;;;;;;;5060552;28;20220;-66
2023/06/03 16:04:43;;;;;;;;;;;;;;;;;;5065093;28;19923;-65
2023/06/03 16:07:09;;;;;;;;;;;;;;;;;;5058125;28;20368;-65
2023/06/03 16:09:35;;;;;;;;;;;;;;;;;;5060094;28;19913;-65
2023/06/03 16:12:01;;;;;;;;;;;;;;;;;;5056092;28;19978;-65
2023/06/03 16:14:27;;;;;;;;;;;;;;;;;;5057725;28;19981;-65
2023/06/03 16:16:53;;;;;;;;;;;;;;;;;;5057269;28;20040;-66
2023/06/03 16:19:19;;;;;;;;;;;;;;;;;;5060679;28;20420;-65
2023/06/03 16:21:46;;;;;;;;;;;;;;;;;;5067628;28;19917;-65
2023/06/03 16:24:12;;;;;;;;;;;;;;;;;;5064472;28;19976;-65
2023/06/03 16:26:42;;;;;;;;;;;;;;;;;;5051837;28;20014;-65
2023/06/03 16:29:08;;;;;;;;;;;;;;;;;;5055169;28;20354;-65
2023/06/03 16:31:34;;;;;;;;;;;;;;;;;;5055705;28;19961;-65
2023/06/03 16:34:01;;;;;;;;;;;;;;;;;;5059700;28;19991;-65
2023/06/03 16:36:27;;;;;;;;;;;;;;;;;;5061955;28;19917;-65